createdAt,value
2023-04-17T00:01:14.411Z,95.37
2023-04-17T00:03:48.187Z,99.15
2023-04-17T00:06:21.288Z,99.67
2023-04-17T00:08:54.788Z,99.79
2023-04-17T00:11:27.698Z,99.45
2023-04-17T00:14:02.517Z,97.39
2023-04-17T00:16:35.924Z,94.82
2023-04-17T00:19:09.653Z,100.00
2023-04-17T00:21:42.858Z,100.00
2023-04-17T00:24:15.931Z,100.00
2023-04-17T00:26:48.860Z,100.00
2023-04-17T00:29:23.055Z,99.15
2023-04-17T00:31:56.133Z,95.32
2023-04-17T00:34:29.673Z,94.63
2023-04-17T00:37:02.920Z,94.37
2023-04-17T00:39:36.053Z,96.00
2023-04-17T00:42:09.359Z,98.73
2023-04-17T00:44:43.792Z,99.36
2023-04-17T00:47:16.837Z,98.70
2023-04-17T00:49:50.141Z,98.21
2023-04-17T00:52:28.848Z,96.17
2023-04-17T00:55:02.207Z,96.48
2023-04-17T00:57:35.621Z,95.46
2023-04-17T01:00:11.328Z,97.97
2023-04-17T01:02:45.079Z,95.64
2023-04-17T01:05:18.871Z,95.29
2023-04-17T01:07:52.068Z,94.31
2023-04-17T01:10:25.293Z,92.74
2023-04-17T01:13:03.355Z,92.99
2023-04-17T01:15:38.371Z,95.40
2023-04-17T01:18:12.313Z,98.48
2023-04-17T01:20:45.353Z,99.23
2023-04-17T01:23:18.305Z,96.79
2023-04-17T01:25:52.889Z,95.39
2023-04-17T01:28:26.031Z,99.10
2023-04-17T01:30:59.322Z,100.00
2023-04-17T01:33:32.580Z,100.00
2023-04-17T01:36:06.048Z,100.00
2023-04-17T01:38:39.326Z,100.00
2023-04-17T01:41:14.020Z,100.00
2023-04-17T01:43:47.686Z,100.00
2023-04-17T01:46:20.799Z,100.00
2023-04-17T01:48:54.096Z,100.00
2023-04-17T01:51:28.032Z,100.00
2023-04-17T01:54:00.958Z,100.00
2023-04-17T01:56:35.329Z,100.00
2023-04-17T01:59:08.543Z,100.00
2023-04-17T02:01:41.960Z,100.00
2023-04-17T02:04:15.540Z,100.00
2023-04-17T02:06:48.883Z,100.00
2023-04-17T02:09:22.482Z,100.00
2023-04-17T02:11:59.974Z,100.00
2023-04-17T02:14:33.588Z,100.00
2023-04-17T02:17:06.873Z,100.00
2023-04-17T02:19:40.116Z,100.00
2023-04-17T02:22:13.153Z,100.00
2023-04-17T02:24:46.111Z,100.00
2023-04-17T02:27:20.536Z,100.00
2023-04-17T02:29:53.577Z,100.00
2023-04-17T02:32:26.848Z,100.00
2023-04-17T02:35:00.414Z,100.00
2023-04-17T02:37:33.275Z,100.00
2023-04-17T02:40:07.998Z,100.00
2023-04-17T02:42:42.389Z,100.00
2023-04-17T02:45:15.540Z,100.00
2023-04-17T02:47:49.319Z,100.00
2023-04-17T02:50:22.674Z,100.00
2023-04-17T02:52:55.776Z,100.00
2023-04-17T02:55:28.782Z,100.00
2023-04-17T02:58:03.216Z,100.00
2023-04-17T03:00:36.188Z,100.00
2023-04-17T03:03:09.600Z,100.00
2023-04-17T03:05:43.221Z,100.00
2023-04-17T03:08:16.399Z,100.00
2023-04-17T03:10:49.394Z,100.00
2023-04-17T03:13:24.370Z,100.00
2023-04-17T03:15:57.678Z,100.00
2023-04-17T03:18:31.533Z,100.00
2023-04-17T03:21:05.164Z,100.00
2023-04-17T03:23:38.331Z,100.00
2023-04-17T03:26:11.226Z,100.00
2023-04-17T03:28:45.573Z,100.00
2023-04-17T03:31:18.654Z,100.00
2023-04-17T03:33:52.094Z,100.00
2023-04-17T03:36:28.254Z,100.00
2023-04-17T03:39:01.218Z,100.00
2023-04-17T03:41:34.478Z,100.00
2023-04-17T03:44:09.174Z,100.00
2023-04-17T03:46:42.084Z,100.00
2023-04-17T03:49:15.307Z,100.00
2023-04-17T03:51:48.625Z,100.00
2023-04-17T03:54:21.588Z,100.00
2023-04-17T03:56:54.511Z,100.00
2023-04-17T03:59:29.002Z,100.00
2023-04-17T04:02:02.377Z,100.00
2023-04-17T04:04:35.818Z,100.00
2023-04-17T04:07:09.240Z,100.00
2023-04-17T04:09:42.407Z,100.00
2023-04-17T04:12:16.051Z,100.00
2023-04-17T04:14:50.894Z,100.00
2023-04-17T04:17:25.007Z,100.00
2023-04-17T04:19:58.574Z,100.00
2023-04-17T04:22:34.911Z,100.00
2023-04-17T04:25:08.579Z,100.00
2023-04-17T04:27:45.653Z,100.00
2023-04-17T04:30:20.509Z,100.00
2023-04-17T04:32:56.103Z,100.00
2023-04-17T04:35:30.610Z,100.00
2023-04-17T04:38:05.147Z,100.00
2023-04-17T04:40:38.440Z,100.00
2023-04-17T04:43:11.622Z,100.00
2023-04-17T04:45:46.387Z,100.00
2023-04-17T04:48:19.559Z,100.00
2023-04-17T04:50:53.003Z,100.00
2023-04-17T04:53:26.146Z,100.00
2023-04-17T04:55:59.327Z,100.00
2023-04-17T04:58:32.251Z,100.00
2023-04-17T05:01:07.763Z,100.00
2023-04-17T05:03:41.741Z,100.00
2023-04-17T05:06:15.079Z,100.00
2023-04-17T05:08:48.126Z,100.00
2023-04-17T05:11:21.426Z,100.00
2023-04-17T06:00:28.081Z,100.00
2023-04-17T06:03:03.025Z,100.00
2023-04-17T06:05:36.342Z,100.00
2023-04-17T06:08:09.727Z,100.00
2023-04-17T06:10:45.808Z,100.00
2023-04-17T06:13:19.274Z,100.00
2023-04-17T06:15:53.792Z,100.00
2023-04-17T06:18:27.320Z,100.00
2023-04-17T06:21:01.046Z,100.00
2023-04-17T06:23:34.196Z,100.00
2023-04-17T06:26:07.578Z,100.00
2023-04-17T06:28:40.552Z,100.00
2023-04-17T06:31:14.976Z,100.00
2023-04-17T06:33:50.182Z,100.00
2023-04-17T06:36:23.568Z,100.00
2023-04-17T06:38:56.555Z,100.00
2023-04-17T06:41:29.792Z,100.00
2023-04-17T06:44:02.733Z,100.00
2023-04-17T06:46:37.221Z,100.00
2023-04-17T06:49:10.405Z,100.00
2023-04-17T06:51:45.996Z,100.00
2023-04-17T06:54:19.092Z,100.00
2023-04-17T06:56:52.190Z,100.00
2023-04-17T06:59:25.135Z,100.00
2023-04-17T07:02:00.319Z,100.00
2023-04-17T07:04:33.348Z,100.00
2023-04-17T07:07:06.654Z,100.00
2023-04-17T07:09:39.697Z,100.00
2023-04-17T07:12:13.630Z,100.00
2023-04-17T07:14:47.109Z,100.00
2023-04-17T07:17:21.507Z,100.00
2023-04-17T07:19:55.115Z,100.00
2023-04-17T07:22:28.837Z,100.00
2023-04-17T07:25:01.978Z,100.00
2023-04-17T07:27:38.397Z,100.00
2023-04-17T07:30:11.649Z,100.00
2023-04-17T07:32:46.441Z,100.00
2023-04-17T07:35:19.776Z,100.00
2023-04-17T07:37:53.127Z,100.00
2023-04-17T07:40:26.174Z,100.00
2023-04-17T07:42:59.334Z,100.00
2023-04-17T07:45:33.597Z,100.00
2023-04-17T07:48:08.232Z,100.00
2023-04-17T07:50:42.009Z,100.00
2023-04-17T07:53:15.445Z,100.00
2023-04-17T07:55:48.711Z,100.00
2023-04-17T07:58:22.452Z,100.00
2023-04-17T08:00:55.578Z,100.00
2023-04-17T08:03:31.751Z,100.00
2023-04-17T08:06:05.297Z,100.00
2023-04-17T08:08:38.878Z,100.00
2023-04-17T08:11:11.858Z,100.00
2023-04-17T08:13:45.299Z,100.00
2023-04-17T08:16:18.578Z,100.00
2023-04-17T08:18:53.016Z,100.00
2023-04-17T08:21:26.806Z,100.00
2023-04-17T08:24:00.349Z,100.00
2023-04-17T08:26:33.387Z,100.00
2023-04-17T08:29:06.455Z,100.00
2023-04-17T08:31:40.439Z,100.00
2023-04-17T08:34:15.695Z,100.00
2023-04-17T08:36:49.151Z,100.00
2023-04-17T08:39:22.355Z,100.00
2023-04-17T08:42:15.405Z,100.00
2023-04-17T08:45:07.241Z,100.00
2023-04-17T08:47:55.048Z,100.00
2023-04-17T08:50:47.419Z,100.00
2023-04-17T08:53:21.301Z,100.00
2023-04-17T08:55:54.753Z,100.00
2023-04-17T08:58:28.748Z,100.00
2023-04-17T09:01:08.585Z,100.00
2023-04-17T09:03:43.404Z,100.00
2023-04-17T09:06:18.212Z,100.00
2023-04-17T09:08:58.957Z,100.00
2023-04-17T09:11:32.045Z,100.00
2023-04-17T09:14:05.869Z,100.00
2023-04-17T09:16:54.030Z,100.00
2023-04-17T09:19:27.434Z,100.00
2023-04-17T09:22:15.493Z,100.00
2023-04-17T09:24:50.579Z,100.00
2023-04-17T09:27:24.584Z,100.00
2023-04-17T09:30:01.410Z,100.00
2023-04-17T09:32:35.292Z,100.00
2023-04-17T09:35:09.014Z,100.00
2023-04-17T09:37:49.578Z,100.00
2023-04-17T09:40:25.177Z,100.00
2023-04-17T09:42:59.359Z,100.00
2023-04-17T09:45:36.246Z,100.00
2023-04-17T09:48:10.848Z,100.00
2023-04-17T09:50:44.119Z,100.00
2023-04-17T09:53:17.398Z,100.00
2023-04-17T09:55:53.272Z,100.00
2023-04-17T09:58:26.519Z,100.00
2023-04-17T10:00:59.795Z,100.00
2023-04-17T10:03:37.194Z,100.00
2023-04-17T10:06:10.862Z,100.00
2023-04-17T10:08:44.260Z,100.00
2023-04-17T10:11:18.962Z,100.00
2023-04-17T10:14:01.857Z,100.00
2023-04-17T10:16:36.409Z,100.00
2023-04-17T10:19:28.148Z,100.00
2023-04-17T10:22:19.812Z,100.00
2023-04-17T10:25:13.844Z,100.00
2023-04-17T10:27:51.895Z,100.00
2023-04-17T10:30:26.760Z,100.00
2023-04-17T10:33:19.967Z,100.00
2023-04-17T10:35:53.859Z,100.00
2023-04-17T10:38:32.424Z,100.00
2023-04-17T10:41:09.361Z,100.00
2023-04-17T10:43:45.491Z,100.00
2023-04-17T10:46:18.677Z,100.00
2023-04-17T10:48:53.357Z,100.00
2023-04-17T10:51:42.381Z,100.00
2023-04-17T10:54:16.270Z,100.00
2023-04-17T10:56:49.591Z,100.00
2023-04-17T10:59:30.119Z,100.00
2023-04-17T11:02:05.044Z,100.00
2023-04-17T11:04:38.227Z,100.00
2023-04-17T11:07:13.421Z,100.00
2023-04-17T11:09:52.274Z,100.00
2023-04-17T11:12:26.252Z,100.00
2023-04-17T11:15:04.284Z,100.00
2023-04-17T11:17:40.166Z,100.00
2023-04-17T11:20:15.291Z,100.00
2023-04-17T11:22:49.587Z,100.00
2023-04-17T11:25:24.042Z,100.00
2023-04-17T11:27:57.555Z,100.00
2023-04-17T11:30:33.127Z,100.00
2023-04-17T11:33:07.794Z,100.00
2023-04-17T11:35:46.718Z,100.00
2023-04-17T11:38:20.981Z,100.00
2023-04-17T11:40:55.482Z,100.00
2023-04-17T11:43:29.357Z,100.00
2023-04-17T11:46:05.264Z,100.00
2023-04-17T11:48:38.518Z,100.00
2023-04-17T11:51:13.557Z,100.00
2023-04-17T11:53:47.342Z,100.00
2023-04-17T11:56:21.017Z,100.00
2023-04-17T11:58:55.205Z,100.00
2023-04-17T12:01:29.699Z,100.00
2023-04-17T12:04:03.161Z,100.00
2023-04-17T12:06:39.327Z,100.00
2023-04-17T12:09:20.061Z,100.00
2023-04-17T12:11:54.079Z,100.00
2023-04-17T12:14:27.485Z,100.00
2023-04-17T12:17:02.232Z,96.87
2023-04-17T12:19:35.320Z,98.24
2023-04-17T12:22:08.520Z,94.11
2023-04-17T12:24:41.872Z,97.40
2023-04-17T12:27:14.925Z,96.49
2023-04-17T12:29:47.948Z,97.42
2023-04-17T12:32:22.203Z,95.76
2023-04-17T12:34:56.199Z,95.73
2023-04-17T12:37:29.796Z,95.66
2023-04-17T12:40:04.059Z,94.53
2023-04-17T12:42:46.453Z,93.96
2023-04-17T12:45:22.806Z,93.68
2023-04-17T12:47:57.460Z,94.84
2023-04-17T12:50:30.771Z,96.23
2023-04-17T12:53:03.789Z,92.15
2023-04-17T12:55:38.681Z,92.64
2023-04-17T12:58:12.391Z,94.52
2023-04-17T13:00:45.457Z,92.27
2023-04-17T13:03:20.193Z,92.30
2023-04-17T13:05:53.783Z,91.22
2023-04-17T13:08:27.230Z,92.36
2023-04-17T13:11:03.736Z,93.39
2023-04-17T13:13:37.032Z,92.70
2023-04-17T13:16:11.224Z,91.26
2023-04-17T13:18:45.861Z,92.60
2023-04-17T13:21:18.962Z,91.32
2023-04-17T13:23:52.251Z,90.90
2023-04-17T13:26:25.226Z,91.42
2023-04-17T13:28:58.192Z,92.87
2023-04-17T13:31:31.224Z,89.90
2023-04-17T13:34:05.931Z,93.10
2023-04-17T13:36:39.074Z,93.73
2023-04-17T13:39:12.245Z,92.50
2023-04-17T13:41:45.775Z,92.87
2023-04-17T13:44:18.824Z,89.93
2023-04-17T13:46:51.977Z,90.42
2023-04-17T13:49:27.225Z,92.21
2023-04-17T13:52:00.211Z,91.81
2023-04-17T13:54:33.121Z,87.53
2023-04-17T13:57:06.596Z,89.42
2023-04-17T13:59:39.821Z,89.32
2023-04-17T14:02:13.190Z,86.55
2023-04-17T14:04:48.100Z,89.63
2023-04-17T14:07:21.365Z,86.52
2023-04-17T14:09:54.497Z,85.17
2023-04-17T14:12:29.101Z,86.57
2023-04-17T14:15:02.462Z,84.10
2023-04-17T14:17:38.164Z,85.80
2023-04-17T14:20:15.178Z,88.55
2023-04-17T14:22:48.323Z,87.09
2023-04-17T14:25:22.439Z,86.36
2023-04-17T14:27:55.723Z,86.14
2023-04-17T14:30:29.133Z,85.90
2023-04-17T14:33:02.625Z,84.42
2023-04-17T14:35:37.193Z,84.50
2023-04-17T14:38:10.237Z,84.46
2023-04-17T14:40:43.246Z,86.03
2023-04-17T14:43:16.288Z,83.50
2023-04-17T14:45:49.531Z,83.79
2023-04-17T14:48:23.832Z,83.49
2023-04-17T14:50:59.950Z,86.48
2023-04-17T14:53:32.877Z,83.77
2023-04-17T14:56:06.248Z,84.78
2023-04-17T14:58:39.383Z,85.52
2023-04-17T15:01:12.645Z,86.70
2023-04-17T15:03:48.572Z,82.59
2023-04-17T15:06:23.242Z,83.35
2023-04-17T15:08:58.339Z,83.64
2023-04-17T15:11:31.455Z,80.22
2023-04-17T15:14:05.023Z,81.05
2023-04-17T15:16:38.845Z,81.03
2023-04-17T15:19:12.384Z,81.68
2023-04-17T15:21:46.867Z,84.45
2023-04-17T15:24:19.896Z,82.60
2023-04-17T15:26:53.268Z,84.75
2023-04-17T15:29:26.850Z,85.41
2023-04-17T15:32:01.758Z,86.30
2023-04-17T15:34:35.960Z,86.38
2023-04-17T15:37:12.851Z,85.72
2023-04-17T15:39:46.176Z,84.91
2023-04-17T15:42:19.220Z,83.96
2023-04-17T15:44:53.180Z,85.62
2023-04-17T15:47:26.748Z,85.31
2023-04-17T15:50:00.204Z,86.50
2023-04-17T15:52:34.718Z,87.05
2023-04-17T15:55:08.128Z,89.80
2023-04-17T15:57:43.145Z,92.09
2023-04-17T16:00:17.172Z,94.90
2023-04-17T16:02:51.930Z,96.54
2023-04-17T16:05:25.309Z,96.51
2023-04-17T16:08:01.343Z,97.28
2023-04-17T16:10:34.969Z,98.16
2023-04-17T16:13:09.041Z,100.00
2023-04-17T16:15:42.689Z,100.00
2023-04-17T16:18:16.148Z,99.63
2023-04-17T16:20:49.372Z,99.59
2023-04-17T16:23:23.669Z,98.73
2023-04-17T16:25:56.654Z,98.39
2023-04-17T16:28:30.042Z,99.42
2023-04-17T16:31:03.302Z,99.35
2023-04-17T16:33:36.576Z,100.00
2023-04-17T16:36:10.051Z,100.00
2023-04-17T16:38:44.513Z,100.00
2023-04-17T16:41:18.674Z,100.00
2023-04-17T16:43:52.124Z,98.95
2023-04-17T16:46:35.445Z,100.00
2023-04-17T16:49:18.542Z,100.00
2023-04-17T16:51:51.901Z,100.00
2023-04-17T16:54:26.276Z,100.00
2023-04-17T16:56:59.445Z,100.00
2023-04-17T16:59:32.418Z,100.00
2023-04-17T17:02:05.342Z,100.00
2023-04-17T17:04:38.455Z,100.00
2023-04-17T17:07:12.308Z,100.00
2023-04-17T17:09:46.948Z,100.00
2023-04-17T17:12:22.195Z,100.00
2023-04-17T17:14:56.010Z,100.00
2023-04-17T17:17:29.837Z,100.00
2023-04-17T17:20:03.264Z,100.00
2023-04-17T17:22:36.646Z,100.00
2023-04-17T17:25:11.821Z,100.00
2023-04-17T17:27:45.102Z,100.00
2023-04-17T17:30:18.670Z,100.00
2023-04-17T17:32:51.778Z,100.00
2023-04-17T17:35:24.925Z,100.00
2023-04-17T17:37:58.692Z,100.00
2023-04-17T17:40:33.249Z,100.00
2023-04-17T17:43:06.680Z,100.00
2023-04-17T17:45:39.836Z,100.00
2023-04-17T17:48:15.459Z,100.00
2023-04-17T17:50:48.733Z,100.00
2023-04-17T17:53:26.197Z,100.00
2023-04-17T17:56:01.364Z,100.00
2023-04-17T17:58:34.427Z,100.00
2023-04-17T18:01:08.145Z,100.00
2023-04-17T18:03:41.631Z,100.00
2023-04-17T18:06:14.907Z,100.00
2023-04-17T18:08:48.116Z,100.00
2023-04-17T18:11:22.954Z,100.00
2023-04-17T18:13:56.239Z,100.00
2023-04-17T18:16:31.687Z,100.00
2023-04-17T18:19:05.158Z,100.00
2023-04-17T18:21:38.299Z,100.00
2023-04-17T18:24:11.576Z,100.00
2023-04-17T18:26:46.136Z,100.00
2023-04-17T18:29:19.351Z,100.00
2023-04-17T18:31:54.412Z,100.00
2023-04-17T18:34:28.241Z,100.00
2023-04-17T18:37:01.387Z,100.00
2023-04-17T18:39:34.601Z,100.00
2023-04-17T18:42:09.195Z,100.00
2023-04-17T18:44:42.929Z,100.00
2023-04-17T18:47:16.002Z,100.00
2023-04-17T18:49:52.706Z,100.00
2023-04-17T18:52:25.854Z,100.00
2023-04-17T18:54:59.161Z,100.00
2023-04-17T18:57:34.273Z,100.00
2023-04-17T19:00:07.952Z,100.00
2023-04-17T19:02:41.568Z,100.00
2023-04-17T19:05:15.231Z,100.00
2023-04-17T19:07:48.492Z,100.00
2023-04-17T19:10:21.867Z,100.00
2023-04-17T19:12:57.098Z,100.00
2023-04-17T19:15:30.890Z,100.00
2023-04-17T19:18:06.718Z,100.00
2023-04-17T19:20:40.082Z,100.00
2023-04-17T19:23:13.255Z,100.00
2023-04-17T19:25:52.460Z,100.00
2023-04-17T19:28:28.528Z,100.00
2023-04-17T19:31:02.986Z,100.00
2023-04-17T19:33:36.218Z,100.00
2023-04-17T19:36:09.889Z,100.00
2023-04-17T19:38:43.780Z,100.00
2023-04-17T19:41:18.393Z,100.00
2023-04-17T19:43:54.283Z,100.00
2023-04-17T19:46:28.739Z,100.00
2023-04-17T19:49:01.934Z,100.00
2023-04-17T19:51:36.308Z,100.00
2023-04-17T19:54:12.176Z,100.00
2023-04-17T19:56:45.704Z,100.00
2023-04-17T19:59:20.203Z,100.00
2023-04-17T20:01:53.485Z,100.00
2023-04-17T20:04:26.754Z,100.00
2023-04-17T20:07:00.028Z,100.00
2023-04-17T20:09:33.367Z,100.00
2023-04-17T20:12:07.980Z,100.00
2023-04-17T20:14:42.818Z,100.00
2023-04-17T20:17:16.133Z,100.00
2023-04-17T20:19:49.251Z,100.00
2023-04-17T20:22:22.262Z,100.00
2023-04-17T20:24:55.510Z,100.00
2023-04-17T20:27:28.532Z,100.00
2023-04-17T20:30:03.165Z,100.00
2023-04-17T20:32:36.331Z,100.00
2023-04-17T20:35:10.527Z,100.00
2023-04-17T20:37:44.516Z,100.00
2023-04-17T20:40:18.623Z,100.00
2023-04-17T20:42:52.106Z,100.00
2023-04-17T20:45:26.504Z,100.00
2023-04-17T20:47:59.441Z,100.00
2023-04-17T20:50:32.551Z,100.00
2023-04-17T20:53:05.618Z,100.00
2023-04-17T20:55:38.967Z,100.00
2023-04-17T20:58:11.962Z,100.00
2023-04-17T21:00:58.282Z,100.00
2023-04-17T21:03:35.741Z,100.00
2023-04-17T21:06:09.181Z,100.00
2023-04-17T21:08:42.200Z,100.00
2023-04-17T21:11:15.267Z,100.00
2023-04-17T21:13:49.665Z,100.00
2023-04-17T21:16:25.023Z,100.00
2023-04-17T21:18:58.255Z,100.00
2023-04-17T21:21:31.582Z,100.00
2023-04-17T21:24:04.588Z,100.00
2023-04-17T21:26:37.456Z,100.00
2023-04-17T21:29:10.922Z,100.00
2023-04-17T21:31:45.383Z,100.00
2023-04-17T21:34:18.673Z,100.00
2023-04-17T21:36:53.555Z,100.00
2023-04-17T21:39:26.848Z,100.00
2023-04-17T21:41:59.928Z,100.00
2023-04-17T21:44:33.246Z,100.00
2023-04-17T21:47:07.617Z,100.00
2023-04-17T21:49:40.732Z,100.00
2023-04-17T21:52:13.977Z,100.00
2023-04-17T21:54:47.164Z,100.00
2023-04-17T21:57:19.880Z,100.00
2023-04-17T21:59:52.808Z,100.00
2023-04-17T22:02:27.131Z,100.00
2023-04-17T22:05:00.418Z,100.00
2023-04-17T22:07:40.691Z,100.00
2023-04-17T22:10:16.875Z,100.00
2023-04-17T22:12:50.366Z,100.00
2023-04-17T22:15:23.892Z,100.00
2023-04-17T22:17:59.747Z,100.00
2023-04-17T22:20:32.980Z,100.00
2023-04-17T22:23:06.012Z,100.00
2023-04-17T22:25:39.230Z,100.00
2023-04-17T22:28:12.555Z,100.00
2023-04-17T22:30:45.622Z,100.00
2023-04-17T22:33:20.496Z,100.00
2023-04-17T22:35:53.726Z,100.00
2023-04-17T22:38:26.927Z,100.00
2023-04-17T22:41:00.133Z,100.00
2023-04-17T22:43:33.288Z,100.00
2023-04-17T22:46:06.337Z,100.00
2023-04-17T22:48:41.190Z,100.00
2023-04-17T22:51:15.086Z,100.00
2023-04-17T22:53:48.268Z,100.00
2023-04-17T22:56:21.367Z,100.00
2023-04-17T22:58:54.294Z,100.00
2023-04-17T23:01:27.418Z,100.00
2023-04-17T23:04:02.065Z,100.00
2023-04-17T23:06:35.557Z,100.00
2023-04-17T23:09:09.051Z,100.00
2023-04-17T23:11:42.545Z,100.00
2023-04-17T23:14:16.079Z,100.00
2023-04-17T23:16:49.648Z,100.00
2023-04-17T23:19:24.197Z,100.00
2023-04-17T23:21:57.890Z,100.00
2023-04-17T23:24:33.432Z,100.00
2023-04-17T23:27:06.325Z,100.00
2023-04-17T23:29:39.396Z,100.00
2023-04-17T23:32:12.491Z,100.00
2023-04-17T23:34:47.161Z,100.00
2023-04-17T23:37:20.218Z,100.00
2023-04-17T23:39:53.562Z,100.00
2023-04-17T23:42:26.547Z,100.00
2023-04-17T23:44:59.742Z,100.00
2023-04-17T23:47:32.728Z,100.00
2023-04-17T23:50:08.034Z,100.00
2023-04-17T23:52:41.177Z,100.00
2023-04-17T23:55:14.184Z,100.00
2023-04-17T23:57:47.324Z,100.00
